Estación Meteorológica Peña el Pijo (Robertgarden) [ 01/20/19 05:16:45 CET ]

Fecha Hora Presion(HPa) Temp (°C) Humedad % Rocio (°C) Viento ( m/s) Direccion Lluvia 1Hora(mm) Lluvia 24H(mm) LLuvia Total(mm)
2019-Jan-18 01:01:49 1006.300 3.1 71 -1.6         161.09
2019-Jan-18 02:03:07 1005.600 2.1 72 -2.4         161.09
2019-Jan-18 03:01:46 1005.900 0.3 74 -3.8         161.09
2019-Jan-18 04:01:43 1005.900 -1.1 76 -4.8         161.09
2019-Jan-18 05:01:44 1005.800 -1.6 78 -4.9         161.09
2019-Jan-18 06:01:47 1005.700 -2.4 79 -5.6         161.09
2019-Jan-18 07:01:42 1006.000 -2.7 80 -5.7         161.09
2019-Jan-18 08:01:44 1006.300 -2.8 81 -5.6         161.09
2019-Jan-18 09:01:48 1006.100 -2.9 82 -5.6         161.09
2019-Jan-18 10:01:44 1006.500 1.8 83 -0.8         161.09
2019-Jan-18 11:01:44 1006.300 7.6 65 1.4         161.09
2019-Jan-18 12:01:45 1006.300 10.1 54 1.2         161.09
2019-Jan-18 13:01:39 1005.500 11.1 45 -0.5 2.0 NNE     161.09
2019-Jan-18 14:01:42 1005.000 11.3 43 -0.9         161.09
2019-Jan-18 15:01:46 1004.600 10.3 44 -1.2         161.09
2019-Jan-18 16:01:41 1004.800 8.9 46 -2.2         161.09
2019-Jan-18 17:01:42 1004.800 7.8 47 -2.9 0.9 WNW     161.09
2019-Jan-18 18:01:51 1004.900 6.1 51 -3.3 1.1 NNW     161.09
2019-Jan-18 19:01:34 1005.000 5.1 54 -3.5         161.09
2019-Jan-18 20:01:32 1005.300 4.3 57 -3.5         161.09
2019-Jan-18 21:01:27 1005.000 3.6 60 -3.5         161.09
2019-Jan-18 22:01:32 1005.200 2.5 64 -3.8         161.09
2019-Jan-18 23:01:31 1005.400 2.5 66 -3.3         161.09

Temperatura Máxima:11°    Temperatura Mínima:-2°
Presión Máxima:1006.500 Hpa    Presión Mínima:1004.600 Hpa


Volver